Time;durP1;ratioP1;P1;durP2;ratioP2;P2;SDS_P1;SDS_P2;PMS_P1;PMS_P2;Temp;Humidity;BMP_temperature;BMP_pressure;BME280_temperature;BME280_humidity;BME280_pressure;Samples;Min_cycle;Max_cycle;Signal;HPM_P1;HPM_P2
2023/07/09 00:01:55;;;;;;;;;;;;;;;27.46;45.05;97229.47;4236690;28;5684;-63
2023/07/09 00:03:58;;;;;;;;;;;;;;;27.45;45.06;97230.56;4236618;28;5529;-63
2023/07/09 00:06:01;;;;;;;;;;;;;;;27.44;44.96;97230.88;4218440;28;5509;-62
2023/07/09 00:08:05;;;;;;;;;;;;;;;27.43;45.00;97226.53;4236413;28;5593;-62
2023/07/09 00:10:16;;;;;;;;;;;;;;;27.42;44.92;97231.16;4236820;28;5606;-62
2023/07/09 00:12:20;;;;;;;;;;;;;;;27.41;45.01;97234.16;4236621;28;5502;-63
2023/07/09 00:14:23;;;;;;;;;;;;;;;27.41;45.09;97229.56;4236389;28;5505;-63
2023/07/09 00:16:26;;;;;;;;;;;;;;;27.41;45.18;97231.44;4232497;28;5683;-63
2023/07/09 00:18:29;;;;;;;;;;;;;;;27.39;44.94;97239.88;4235986;28;5687;-63
2023/07/09 00:20:32;;;;;;;;;;;;;;;27.39;45.06;97247.22;4234459;28;5600;-62
2023/07/09 00:22:35;;;;;;;;;;;;;;;27.38;45.05;97249.13;4235041;28;5683;-63
2023/07/09 00:24:38;;;;;;;;;;;;;;;27.39;45.17;97248.00;4236211;28;5773;-63
2023/07/09 00:26:42;;;;;;;;;;;;;;;27.39;45.08;97247.22;4236243;28;5142;-63
2023/07/09 00:28:45;;;;;;;;;;;;;;;27.38;45.18;97251.81;4236353;28;5698;-63
2023/07/09 00:30:49;;;;;;;;;;;;;;;27.38;45.00;97242.88;4236217;28;5840;-63
2023/07/09 00:32:54;;;;;;;;;;;;;;;27.38;45.30;97245.59;4235222;28;5695;-63
2023/07/09 00:34:57;;;;;;;;;;;;;;;27.36;45.14;97245.88;4235547;28;5593;-63
2023/07/09 00:36:59;;;;;;;;;;;;;;;27.35;45.07;97248.91;4232393;28;5806;-63
2023/07/09 00:39:04;;;;;;;;;;;;;;;27.33;45.19;97260.06;4235907;28;5112;-63
2023/07/09 00:41:17;;;;;;;;;;;;;;;27.33;45.23;97248.38;4230877;27;5620;-62
2023/07/09 00:43:21;;;;;;;;;;;;;;;27.30;45.10;97252.50;4230472;28;5497;-62
2023/07/09 00:45:25;;;;;;;;;;;;;;;27.27;45.13;97248.44;4235924;28;5732;-63
2023/07/09 00:47:42;;;;;;;;;;;;;;;27.26;45.23;97260.38;4236237;28;5606;-62
2023/07/09 00:49:47;;;;;;;;;;;;;;;27.22;45.19;97259.34;4235736;28;5115;-63
2023/07/09 00:51:49;;;;;;;;;;;;;;;27.20;45.25;97256.13;4234950;28;5596;-62
2023/07/09 00:53:58;;;;;;;;;;;;;;;27.20;45.06;97261.56;4235880;28;5770;-63
2023/07/09 00:56:06;;;;;;;;;;;;;;;27.15;45.23;97269.72;4227466;28;5829;-63
2023/07/09 00:58:15;;;;;;;;;;;;;;;27.11;45.39;97268.72;4236009;28;5516;-62
2023/07/09 01:00:19;;;;;;;;;;;;;;;27.07;45.11;97270.38;4234949;27;5692;-62
2023/07/09 01:02:23;;;;;;;;;;;;;;;27.06;45.11;97266.03;4236102;28;5596;-62
2023/07/09 01:04:28;;;;;;;;;;;;;;;27.06;45.14;97271.47;4236196;28;6217;-62
2023/07/09 01:06:36;;;;;;;;;;;;;;;27.06;45.35;97271.47;4225707;27;5601;-63
2023/07/09 01:08:42;;;;;;;;;;;;;;;27.06;45.17;97266.03;4235696;28;5597;-62
2023/07/09 01:10:45;;;;;;;;;;;;;;;27.07;45.21;97267.66;4235644;27;5851;-62
2023/07/09 01:12:51;;;;;;;;;;;;;;;27.07;45.14;97270.38;4234810;28;5624;-62
2023/07/09 01:14:58;;;;;;;;;;;;;;;27.05;45.12;97271.75;4235767;28;5612;-62
2023/07/09 01:17:07;;;;;;;;;;;;;;;27.03;45.08;97263.91;4235770;28;5628;-63
2023/07/09 01:19:13;;;;;;;;;;;;;;;27.02;45.17;97262.28;4235517;28;5608;-63
2023/07/09 01:21:18;;;;;;;;;;;;;;;27.03;44.99;97272.03;4235550;28;5711;-63
2023/07/09 01:23:21;;;;;;;;;;;;;;;27.03;45.00;97266.63;4235521;28;5835;-63
2023/07/09 01:25:24;;;;;;;;;;;;;;;27.04;45.04;97272.84;4234037;28;5702;-63
2023/07/09 01:27:33;;;;;;;;;;;;;;;27.02;45.00;97264.19;4235379;28;5952;-63
2023/07/09 01:29:36;;;;;;;;;;;;;;;27.03;44.88;97266.63;4234849;28;6190;-63
2023/07/09 01:31:39;;;;;;;;;;;;;;;27.04;45.03;97272.84;4235550;28;5604;-63
2023/07/09 01:33:44;;;;;;;;;;;;;;;27.05;45.07;97280.69;4234765;28;5600;-63
2023/07/09 01:35:47;;;;;;;;;;;;;;;27.08;44.99;97282.06;4235469;28;5908;-63
2023/07/09 01:37:51;;;;;;;;;;;;;;;27.09;44.98;97281.75;4235628;28;5941;-62
2023/07/09 01:39:54;;;;;;;;;;;;;;;27.07;44.87;97277.69;4234297;27;5657;-63
2023/07/09 01:41:57;;;;;;;;;;;;;;;27.08;44.87;97273.91;4225783;27;5612;-63
2023/07/09 01:44:00;;;;;;;;;;;;;;;27.07;44.86;97267.66;4235268;27;5657;-63
2023/07/09 01:46:03;;;;;;;;;;;;;;;27.07;45.00;97275.81;4243628;27;5743;-63
2023/07/09 01:48:06;;;;;;;;;;;;;;;27.07;45.18;97273.09;4233807;27;5720;-63
2023/07/09 01:50:09;;;;;;;;;;;;;;;27.08;44.74;97277.44;4234080;27;5757;-62
2023/07/09 01:52:13;;;;;;;;;;;;;;;27.10;44.81;97277.94;4231624;27;5791;-63
2023/07/09 01:54:18;;;;;;;;;;;;;;;27.11;44.92;97273.31;4226345;27;5735;-63
2023/07/09 01:56:20;;;;;;;;;;;;;;;27.10;44.81;97275.22;4233436;28;5664;-63
2023/07/09 01:58:24;;;;;;;;;;;;;;;27.10;44.90;97269.81;4232832;27;5680;-63
2023/07/09 02:00:27;;;;;;;;;;;;;;;27.10;44.94;97272.53;4233891;27;5601;-62
2023/07/09 02:02:30;;;;;;;;;;;;;;;27.08;45.05;97272.00;4231674;27;5779;-63
2023/07/09 02:04:32;;;;;;;;;;;;;;;27.07;45.03;97273.09;4221473;27;5844;-63
2023/07/09 02:06:35;;;;;;;;;;;;;;;27.07;44.90;97275.81;4230719;27;5839;-62
2023/07/09 02:08:39;;;;;;;;;;;;;;;27.06;44.92;97278.78;4218317;27;5608;-63
2023/07/09 02:10:44;;;;;;;;;;;;;;;27.04;45.13;97281.78;4232396;28;5868;-62
2023/07/09 02:12:48;;;;;;;;;;;;;;;27.03;44.99;97282.09;4233534;28;5707;-62
2023/07/09 02:14:50;;;;;;;;;;;;;;;27.02;45.27;97288.59;4232198;27;5627;-63
2023/07/09 02:16:53;;;;;;;;;;;;;;;27.02;45.21;97289.41;4234188;27;5242;-63
2023/07/09 02:18:56;;;;;;;;;;;;;;;27.01;45.33;97293.19;4233272;27;5679;-62
2023/07/09 02:20:59;;;;;;;;;;;;;;;26.99;45.21;97289.97;4229469;27;5715;-62
2023/07/09 02:23:03;;;;;;;;;;;;;;;26.99;45.15;97290.78;4235579;27;5614;-63
2023/07/09 02:25:07;;;;;;;;;;;;;;;26.99;45.55;97288.06;4233211;28;5605;-63
2023/07/09 02:27:11;;;;;;;;;;;;;;;26.99;45.45;97287.25;4231093;27;5929;-63
2023/07/09 02:29:14;;;;;;;;;;;;;;;26.99;45.65;97289.97;4232901;27;5751;-63
2023/07/09 02:31:17;;;;;;;;;;;;;;;26.99;45.84;97288.06;4225554;28;5586;-63
2023/07/09 02:33:20;;;;;;;;;;;;;;;26.99;45.83;97292.69;4228137;27;5628;-63
2023/07/09 02:35:23;;;;;;;;;;;;;;;26.96;45.87;97291.34;4234223;28;5589;-63
2023/07/09 02:37:27;;;;;;;;;;;;;;;26.95;46.25;97292.41;4234635;28;5885;-62
2023/07/09 02:39:30;;;;;;;;;;;;;;;26.96;46.15;97287.84;4233753;28;5589;-63
2023/07/09 02:41:33;;;;;;;;;;;;;;;26.94;46.26;97288.09;4234545;28;5651;-63
2023/07/09 02:43:37;;;;;;;;;;;;;;;26.93;46.00;97288.38;4234615;28;5615;-63
2023/07/09 02:45:40;;;;;;;;;;;;;;;26.92;46.22;97293.00;4233604;28;5810;-63
2023/07/09 02:47:43;;;;;;;;;;;;;;;26.91;46.05;97290.59;4233535;28;5721;-62
2023/07/09 02:49:46;;;;;;;;;;;;;;;26.88;46.19;97293.88;4234377;28;5608;-62
2023/07/09 02:51:49;;;;;;;;;;;;;;;26.87;46.41;97286.84;4234182;28;5601;-62
2023/07/09 02:53:51;;;;;;;;;;;;;;;26.85;46.22;97287.13;4234334;28;5691;-63
2023/07/09 02:55:54;;;;;;;;;;;;;;;26.84;46.29;97290.09;4234442;28;5676;-63
2023/07/09 02:57:57;;;;;;;;;;;;;;;26.83;46.16;97297.41;4234544;28;5521;-62
2023/07/09 03:00:07;;;;;;;;;;;;;;;26.83;45.99;97293.91;4233832;28;5581;-63
2023/07/09 03:02:10;;;;;;;;;;;;;;;26.82;45.83;97293.09;4227054;28;5517;-63
2023/07/09 03:04:14;;;;;;;;;;;;;;;26.84;45.79;97306.38;4231560;28;5763;-63
2023/07/09 03:06:17;;;;;;;;;;;;;;;26.82;45.86;97300.41;4234030;28;5796;-62
2023/07/09 03:08:20;;;;;;;;;;;;;;;26.82;45.87;97303.13;4234334;28;5942;-62
2023/07/09 03:10:23;;;;;;;;;;;;;;;26.81;45.55;97302.31;4233402;28;5804;-63
2023/07/09 03:12:24;;;;;;;;;;;;;;;26.81;45.79;97312.38;4233957;28;5703;-63
2023/07/09 03:14:27;;;;;;;;;;;;;;;26.81;45.45;97312.38;4233982;28;5518;-63
2023/07/09 03:16:34;;;;;;;;;;;;;;;26.79;45.52;97306.44;4234108;28;5834;-62
2023/07/09 03:18:36;;;;;;;;;;;;;;;26.79;45.33;97306.44;4234016;28;5656;-63
2023/07/09 03:20:40;;;;;;;;;;;;;;;26.77;45.22;97301.28;4233178;28;5585;-63
2023/07/09 03:22:43;;;;;;;;;;;;;;;26.76;45.20;97304.28;4234038;28;5521;-64
2023/07/09 03:24:45;;;;;;;;;;;;;;;26.76;45.07;97309.72;4233814;28;5717;-63
2023/07/09 03:26:48;;;;;;;;;;;;;;;26.74;44.98;97315.44;4234127;28;5597;-62
2023/07/09 03:28:52;;;;;;;;;;;;;;;26.73;44.88;97313.81;4233716;28;5608;-62
2023/07/09 03:30:55;;;;;;;;;;;;;;;26.69;45.04;97305.41;4233570;28;6425;-63
2023/07/09 03:33:00;;;;;;;;;;;;;;;26.66;44.93;97300.56;4233754;28;5516;-62
2023/07/09 03:35:03;;;;;;;;;;;;;;;26.65;44.75;97300.84;4227339;27;5579;-63
2023/07/09 03:37:06;;;;;;;;;;;;;;;26.66;44.77;97294.34;4234083;28;5682;-62
2023/07/09 03:39:09;;;;;;;;;;;;;;;26.66;44.69;97306.00;4223877;28;6504;-63
2023/07/09 03:41:11;;;;;;;;;;;;;;;26.67;44.70;97309.50;4233916;28;5604;-62
2023/07/09 03:43:14;;;;;;;;;;;;;;;26.67;44.50;97310.31;4233211;27;5684;-63
2023/07/09 03:45:17;;;;;;;;;;;;;;;26.68;44.14;97316.56;4232611;28;5605;-62
2023/07/09 03:47:20;;;;;;;;;;;;;;;26.66;44.26;97316.84;4233802;28;5798;-63
2023/07/09 03:49:25;;;;;;;;;;;;;;;26.65;43.97;97325.25;4235523;27;5695;-62
2023/07/09 03:51:27;;;;;;;;;;;;;;;26.64;43.99;97319.03;4233487;28;5813;-63
2023/07/09 03:53:30;;;;;;;;;;;;;;;26.61;43.82;97322.28;4233335;28;5684;-62
2023/07/09 03:55:33;;;;;;;;;;;;;;;26.61;43.93;97325.00;4232491;27;6525;-62
2023/07/09 03:57:37;;;;;;;;;;;;;;;26.60;43.83;97328.00;4234995;27;5784;-63
2023/07/09 03:59:40;;;;;;;;;;;;;;;26.59;43.60;97327.19;4235453;28;5632;-63
2023/07/09 04:01:45;;;;;;;;;;;;;;;26.57;43.63;97326.66;4236375;28;5691;-63
2023/07/09 04:03:49;;;;;;;;;;;;;;;26.57;43.70;97328.56;4236629;28;5680;-62
2023/07/09 04:05:53;;;;;;;;;;;;;;;26.55;43.53;97331.56;4236569;28;5596;-62
2023/07/09 04:07:56;;;;;;;;;;;;;;;26.55;43.52;97337.00;4236182;28;5493;-62
2023/07/09 04:10:02;;;;;;;;;;;;;;;26.55;43.54;97339.69;4228245;28;5581;-62
2023/07/09 04:12:08;;;;;;;;;;;;;;;26.53;43.78;97339.19;4218126;28;5608;-62
2023/07/09 04:14:11;;;;;;;;;;;;;;;26.54;43.46;97340.00;4237070;27;5605;-62
2023/07/09 04:16:14;;;;;;;;;;;;;;;26.53;43.36;97339.19;4236114;28;5516;-63
2023/07/09 04:18:17;;;;;;;;;;;;;;;26.51;43.48;97335.94;4235250;28;5593;-62
2023/07/09 04:20:20;;;;;;;;;;;;;;;26.52;43.62;97345.69;4235248;28;6720;-62
2023/07/09 04:22:24;;;;;;;;;;;;;;;26.52;43.69;97336.75;4236235;28;5601;-63
2023/07/09 04:24:28;;;;;;;;;;;;;;;26.51;43.60;97329.72;4236034;28;5695;-63
2023/07/09 04:26:31;;;;;;;;;;;;;;;26.51;43.91;97330.53;4236232;28;5687;-62
2023/07/09 04:28:34;;;;;;;;;;;;;;;26.50;44.00;97339.72;4235648;28;5605;-62
2023/07/09 04:30:37;;;;;;;;;;;;;;;26.49;44.47;97338.09;4237133;27;5736;-62
2023/07/09 04:32:40;;;;;;;;;;;;;;;26.49;44.24;97337.28;4236175;28;5585;-62
2023/07/09 04:34:43;;;;;;;;;;;;;;;26.50;44.57;97334.31;4234922;28;5602;-62
2023/07/09 04:36:46;;;;;;;;;;;;;;;26.52;44.47;97337.56;4234579;28;5834;-63
2023/07/09 04:38:50;;;;;;;;;;;;;;;26.54;44.76;97329.16;4235623;28;5594;-63
2023/07/09 04:40:53;;;;;;;;;;;;;;;26.54;44.72;97332.66;4240827;27;5102;-62
2023/07/09 04:42:55;;;;;;;;;;;;;;;26.54;44.78;97335.38;4235555;28;5804;-62
2023/07/09 04:44:57;;;;;;;;;;;;;;;26.55;44.99;97330.75;4235357;28;5665;-62
2023/07/09 04:47:00;;;;;;;;;;;;;;;26.56;45.11;97326.94;4235872;28;5684;-62
2023/07/09 04:49:04;;;;;;;;;;;;;;;26.57;44.97;97323.97;4232899;28;5620;-63
2023/07/09 04:51:07;;;;;;;;;;;;;;;26.59;45.11;97329.91;4228277;28;5691;-63
2023/07/09 04:53:11;;;;;;;;;;;;;;;26.61;45.17;97329.63;4235232;28;5852;-63
2023/07/09 04:55:18;;;;;;;;;;;;;;;26.61;45.54;97335.84;4236882;27;5593;-62
2023/07/09 04:57:21;;;;;;;;;;;;;;;26.63;45.38;97341.81;4233865;28;5702;-63
2023/07/09 04:59:24;;;;;;;;;;;;;;;26.63;45.50;97335.59;4233642;27;5505;-63
2023/07/09 05:01:27;;;;;;;;;;;;;;;26.64;45.47;97335.31;4236844;27;5221;-62
2023/07/09 05:03:30;;;;;;;;;;;;;;;26.65;45.75;97336.91;4236179;28;5597;-63
2023/07/09 05:05:33;;;;;;;;;;;;;;;26.63;45.63;97333.69;4235941;28;5711;-63
2023/07/09 05:07:36;;;;;;;;;;;;;;;26.62;45.65;97331.25;4231869;28;6396;-63
2023/07/09 05:09:39;;;;;;;;;;;;;;;26.61;45.82;97327.72;4235602;28;5679;-63
2023/07/09 05:11:43;;;;;;;;;;;;;;;26.62;45.93;97332.06;4231856;28;5788;-63
2023/07/09 05:13:47;;;;;;;;;;;;;;;26.64;45.99;97335.31;4235671;28;5734;-63
2023/07/09 05:15:50;;;;;;;;;;;;;;;26.64;45.79;97335.31;4235295;28;5927;-62
2023/07/09 05:17:53;;;;;;;;;;;;;;;26.64;46.18;97332.59;4235727;28;5677;-63
2023/07/09 05:19:56;;;;;;;;;;;;;;;26.66;45.96;97335.00;4235389;28;5589;-62
2023/07/09 05:21:58;;;;;;;;;;;;;;;26.67;46.10;97334.72;4235311;28;5593;-63
2023/07/09 05:24:01;;;;;;;;;;;;;;;26.67;45.89;97342.06;4226907;28;5641;-62
2023/07/09 05:26:04;;;;;;;;;;;;;;;26.67;46.05;97328.50;4227185;28;5699;-62
2023/07/09 05:28:09;;;;;;;;;;;;;;;26.70;46.12;97336.06;4235319;28;5648;-63
2023/07/09 05:30:12;;;;;;;;;;;;;;;26.73;46.09;97343.66;4234888;28;5683;-63
2023/07/09 05:32:15;;;;;;;;;;;;;;;26.75;46.27;97332.50;4235590;28;5687;-62
2023/07/09 05:34:18;;;;;;;;;;;;;;;26.83;46.17;97334.59;4235201;28;5184;-63
2023/07/09 05:36:21;;;;;;;;;;;;;;;26.94;45.96;97336.94;4235366;28;5925;-63
2023/07/09 05:38:24;;;;;;;;;;;;;;;27.03;45.95;97337.16;4235352;28;5771;-63
2023/07/09 05:40:26;;;;;;;;;;;;;;;27.06;45.69;97342.00;4234414;28;5597;-63
2023/07/09 05:42:29;;;;;;;;;;;;;;;27.09;45.83;97346.88;4235376;28;5601;-63
2023/07/09 05:44:33;;;;;;;;;;;;;;;27.16;45.69;97339.19;4234713;28;5226;-63
2023/07/09 05:46:37;;;;;;;;;;;;;;;27.26;45.52;97335.56;4233734;28;5833;-63
2023/07/09 05:48:41;;;;;;;;;;;;;;;27.35;45.44;97333.06;4234276;28;5581;-63
2023/07/09 05:50:44;;;;;;;;;;;;;;;27.45;45.44;97332.94;4234728;28;5609;-63
2023/07/09 05:52:46;;;;;;;;;;;;;;;27.54;45.27;97336.66;4234784;28;5516;-63
2023/07/09 05:54:50;;;;;;;;;;;;;;;27.63;44.97;97332.16;4234083;28;5695;-63
2023/07/09 05:56:53;;;;;;;;;;;;;;;27.69;45.09;97333.78;4234118;28;5611;-63
2023/07/09 05:58:56;;;;;;;;;;;;;;;27.76;44.87;97328.81;4234098;28;6393;-63
2023/07/09 06:01:00;;;;;;;;;;;;;;;27.82;44.69;97330.34;4239069;27;5616;-63
2023/07/09 06:03:07;;;;;;;;;;;;;;;27.88;44.62;97327.56;4235091;27;5510;-63
2023/07/09 06:05:11;;;;;;;;;;;;;;;27.95;44.52;97336.16;4233855;27;5837;-63
2023/07/09 06:07:14;;;;;;;;;;;;;;;27.99;44.51;97327.16;4231456;27;5644;-63
2023/07/09 06:09:17;;;;;;;;;;;;;;;28.01;44.30;97330.38;4234045;27;5831;-63
2023/07/09 06:11:20;;;;;;;;;;;;;;;28.03;44.29;97327.38;4233493;27;5792;-63
2023/07/09 06:13:24;;;;;;;;;;;;;;;28.03;44.08;97327.38;4233194;28;5712;-63
2023/07/09 06:15:27;;;;;;;;;;;;;;;28.04;43.94;97329.78;4232817;28;5609;-62
2023/07/09 06:17:31;;;;;;;;;;;;;;;28.06;43.70;97329.50;4234276;28;5605;-63
2023/07/09 06:19:34;;;;;;;;;;;;;;;28.07;43.64;97328.38;4233393;28;5500;-63
2023/07/09 06:21:37;;;;;;;;;;;;;;;28.07;43.47;97328.38;4234414;28;5593;-63
2023/07/09 06:23:40;;;;;;;;;;;;;;;28.09;43.26;97328.94;4233703;28;5820;-63
2023/07/09 06:25:42;;;;;;;;;;;;;;;28.10;43.28;97328.63;4234069;28;5613;-63
2023/07/09 06:27:45;;;;;;;;;;;;;;;28.12;43.09;97321.00;4234603;28;5101;-63
2023/07/09 06:29:48;;;;;;;;;;;;;;;28.14;42.98;97324.22;4232893;28;5716;-63
2023/07/09 06:31:51;;;;;;;;;;;;;;;28.16;42.87;97332.06;4234379;28;5584;-63
2023/07/09 06:33:55;;;;;;;;;;;;;;;28.17;42.81;97327.44;4233854;28;5612;-62
2023/07/09 06:36:00;;;;;;;;;;;;;;;28.21;42.48;97340.19;4233358;27;5847;-63
2023/07/09 06:38:03;;;;;;;;;;;;;;;28.22;42.66;97333.63;4231099;27;5609;-63
2023/07/09 06:40:08;;;;;;;;;;;;;;;28.24;42.49;97336.84;4231082;27;5673;-62
2023/07/09 06:42:11;;;;;;;;;;;;;;;28.26;42.53;97323.78;4238643;27;7647;-62
2023/07/09 06:44:14;;;;;;;;;;;;;;;28.26;42.29;97323.78;4234281;28;5801;-63
2023/07/09 06:46:20;;;;;;;;;;;;;;;28.25;42.27;97327.59;4234046;28;5886;-63
2023/07/09 06:48:25;;;;;;;;;;;;;;;28.28;41.73;97326.22;4233726;28;5829;-63
2023/07/09 06:50:30;;;;;;;;;;;;;;;28.31;41.93;97326.44;4234052;28;5596;-62
2023/07/09 06:52:33;;;;;;;;;;;;;;;28.33;41.74;97326.97;4231683;28;6284;-63
2023/07/09 06:54:36;;;;;;;;;;;;;;;28.37;41.74;97324.47;4233343;28;5601;-63
2023/07/09 06:56:38;;;;;;;;;;;;;;;28.40;41.57;97327.41;4234035;28;5824;-63
2023/07/09 06:58:41;;;;;;;;;;;;;;;28.45;41.43;97333.88;4228002;28;5796;-63
2023/07/09 07:00:44;;;;;;;;;;;;;;;28.47;41.42;97335.19;4233713;28;5513;-62
2023/07/09 07:02:47;;;;;;;;;;;;;;;28.48;41.21;97336.81;4228131;28;5794;-63
2023/07/09 07:04:50;;;;;;;;;;;;;;;28.47;41.49;97334.38;4233382;27;5716;-62
2023/07/09 07:06:56;;;;;;;;;;;;;;;28.46;41.19;97335.50;4233595;28;5597;-63
2023/07/09 07:08:59;;;;;;;;;;;;;;;28.42;41.25;97341.50;4233610;28;5602;-61
2023/07/09 07:11:08;;;;;;;;;;;;;;;28.38;41.16;97342.41;4228672;28;5594;-61
2023/07/09 07:13:14;;;;;;;;;;;;;;;28.36;41.03;97341.88;4228373;28;5600;-61
2023/07/09 07:15:19;;;;;;;;;;;;;;;28.31;41.09;97339.22;4233726;28;5593;-61
2023/07/09 07:17:22;;;;;;;;;;;;;;;28.27;41.08;97339.00;4231543;28;5680;-61
2023/07/09 07:19:25;;;;;;;;;;;;;;;28.25;41.11;97338.47;4226420;28;5833;-61
2023/07/09 07:21:28;;;;;;;;;;;;;;;28.21;41.21;97334.75;4231339;27;5781;-62
2023/07/09 07:23:33;;;;;;;;;;;;;;;28.16;41.23;97342.94;4231998;27;7701;-62
2023/07/09 07:25:35;;;;;;;;;;;;;;;28.13;41.18;97346.25;4232529;27;5585;-62
2023/07/09 07:27:39;;;;;;;;;;;;;;;28.08;41.19;97351.75;4232069;28;5592;-62
2023/07/09 07:29:42;;;;;;;;;;;;;;;28.06;41.16;97346.59;4231328;28;6564;-62
2023/07/09 07:31:45;;;;;;;;;;;;;;;28.03;41.33;97352.63;4233435;28;5708;-62
2023/07/09 07:33:48;;;;;;;;;;;;;;;27.97;41.42;97345.63;4234215;28;5775;-62
2023/07/09 07:35:50;;;;;;;;;;;;;;;27.95;41.49;97357.91;4234301;28;5833;-62
2023/07/09 07:38:13;;;;;;;;;;;;;;;27.90;41.43;97357.97;4230139;28;5724;-62
2023/07/09 07:40:17;;;;;;;;;;;;;;;27.85;41.80;97351.50;4229798;28;5984;-62
2023/07/09 07:42:20;;;;;;;;;;;;;;;27.84;41.71;97349.88;4231701;27;6580;-62
2023/07/09 07:44:23;;;;;;;;;;;;;;;27.83;41.69;97352.88;4228144;28;5672;-62
2023/07/09 07:46:26;;;;;;;;;;;;;;;27.81;41.93;97355.09;4230861;28;5795;-62
2023/07/09 07:48:28;;;;;;;;;;;;;;;27.80;42.04;97357.00;4224578;28;5703;-62
2023/07/09 07:50:31;;;;;;;;;;;;;;;27.78;41.98;97353.78;4234737;28;5605;-62
2023/07/09 07:52:37;;;;;;;;;;;;;;;27.75;42.02;97348.94;4234677;28;5699;-62
2023/07/09 07:54:40;;;;;;;;;;;;;;;27.75;42.07;97343.50;4232095;28;5502;-63
2023/07/09 07:56:44;;;;;;;;;;;;;;;27.74;42.16;97344.56;4235196;28;5605;-62
2023/07/09 07:58:47;;;;;;;;;;;;;;;27.73;42.23;97342.94;4233880;28;5793;-62
2023/07/09 08:00:50;;;;;;;;;;;;;;;27.73;42.33;97339.44;4228931;28;5696;-62
2023/07/09 08:02:53;;;;;;;;;;;;;;;27.74;42.32;97330.97;4229268;28;5585;-62
2023/07/09 08:04:56;;;;;;;;;;;;;;;27.74;42.35;97330.97;4232689;28;5520;-62
2023/07/09 08:06:59;;;;;;;;;;;;;;;27.75;42.30;97339.97;4231902;28;5882;-62
2023/07/09 08:09:02;;;;;;;;;;;;;;;27.76;42.46;97331.53;4232035;28;5684;-62
2023/07/09 08:11:07;;;;;;;;;;;;;;;27.78;42.30;97333.94;4233437;28;5712;-61
2023/07/09 08:13:13;;;;;;;;;;;;;;;27.77;42.40;97335.84;4231284;28;5696;-62
2023/07/09 08:15:17;;;;;;;;;;;;;;;27.78;42.35;97323.88;4229186;28;5676;-62
2023/07/09 08:17:20;;;;;;;;;;;;;;;27.79;42.18;97322.78;4229564;28;5811;-62
2023/07/09 08:19:23;;;;;;;;;;;;;;;27.79;42.31;97333.66;4230378;28;5699;-62
2023/07/09 08:21:26;;;;;;;;;;;;;;;27.79;42.17;97332.84;4229063;27;6469;-62
2023/07/09 08:23:29;;;;;;;;;;;;;;;27.78;42.11;97332.03;4232246;27;5645;-62
2023/07/09 08:25:32;;;;;;;;;;;;;;;27.78;41.99;97331.22;4229929;28;5609;-59
2023/07/09 08:27:34;;;;;;;;;;;;;;;27.80;42.10;97335.28;4227286;28;5742;-59
2023/07/09 08:29:39;;;;;;;;;;;;;;;27.80;42.03;97335.28;4222788;28;5692;-59
2023/07/09 08:31:42;;;;;;;;;;;;;;;27.78;41.90;97334.75;4234817;28;5635;-59
2023/07/09 08:33:45;;;;;;;;;;;;;;;27.76;41.85;97328.00;4229333;28;5738;-59
2023/07/09 08:35:50;;;;;;;;;;;;;;;27.77;41.66;97330.41;4231071;27;6263;-59
2023/07/09 08:37:53;;;;;;;;;;;;;;;27.78;41.64;97326.59;4230851;28;5823;-59
2023/07/09 08:39:56;;;;;;;;;;;;;;;27.77;41.46;97338.56;4232714;28;6463;-59
2023/07/09 08:42:03;;;;;;;;;;;;;;;27.75;41.26;97331.81;4230116;28;6974;-59
2023/07/09 08:44:20;;;;;;;;;;;;;;;27.74;41.08;97325.53;4219718;27;5819;-60
2023/07/09 08:46:36;;;;;;;;;;;;;;;27.72;40.78;97325.03;4230975;28;5920;-59
2023/07/09 08:48:45;;;;;;;;;;;;;;;27.75;40.69;97321.75;4231419;28;5882;-60
2023/07/09 08:50:52;;;;;;;;;;;;;;;27.74;40.41;97320.13;4231342;28;5994;-60
2023/07/09 08:52:58;;;;;;;;;;;;;;;27.77;40.41;97325.00;4226234;27;6212;-58
2023/07/09 08:55:07;;;;;;;;;;;;;;;27.78;40.27;97323.09;4233325;28;5668;-61
2023/07/09 08:57:19;;;;;;;;;;;;;;;27.78;40.17;97323.09;4226528;28;5700;-60
2023/07/09 08:59:22;;;;;;;;;;;;;;;27.81;40.00;97326.00;4231886;28;5740;-60
2023/07/09 09:01:32;;;;;;;;;;;;;;;27.81;39.70;97323.28;4232522;28;5834;-60
2023/07/09 09:03:39;;;;;;;;;;;;;;;27.83;39.51;97323.00;4231727;28;5800;-60
2023/07/09 09:05:45;;;;;;;;;;;;;;;27.83;39.54;97321.09;4225997;28;5104;-60
2023/07/09 09:07:54;;;;;;;;;;;;;;;27.84;39.58;97316.47;4232043;27;5637;-64
2023/07/09 09:09:59;;;;;;;;;;;;;;;27.84;39.45;97320.00;4233802;28;5585;-63
2023/07/09 09:12:14;;;;;;;;;;;;;;;27.84;39.50;97314.56;4227811;28;5759;-66
2023/07/09 09:14:25;;;;;;;;;;;;;;;27.87;39.10;97306.94;4230937;28;5672;-63
2023/07/09 09:16:33;;;;;;;;;;;;;;;27.88;39.15;97303.94;4233341;28;5604;-63
2023/07/09 09:18:42;;;;;;;;;;;;;;;27.92;39.14;97309.59;4232553;28;5696;-63
2023/07/09 09:20:48;;;;;;;;;;;;;;;27.94;39.18;97307.38;4233566;28;6287;-63
2023/07/09 09:22:55;;;;;;;;;;;;;;;27.94;39.35;97307.38;4229949;27;5823;-64
2023/07/09 09:25:06;;;;;;;;;;;;;;;27.91;39.32;97303.34;4232126;28;5696;-65
2023/07/09 09:27:09;;;;;;;;;;;;;;;27.92;39.19;97307.69;4229261;27;5899;-67
2023/07/09 09:29:13;;;;;;;;;;;;;;;27.95;39.17;97298.13;4228914;27;5604;-62
2023/07/09 09:31:18;;;;;;;;;;;;;;;27.94;39.11;97300.03;4232220;28;5698;-62
2023/07/09 09:33:23;;;;;;;;;;;;;;;27.94;39.07;97297.31;4233042;28;5735;-64
2023/07/09 09:35:31;;;;;;;;;;;;;;;27.96;39.29;97289.69;4232668;28;5703;-64
2023/07/09 09:37:34;;;;;;;;;;;;;;;27.99;39.08;97299.16;4229843;28;5790;-64
2023/07/09 09:39:39;;;;;;;;;;;;;;;28.00;39.14;97287.19;4232464;28;5526;-65
2023/07/09 09:41:45;;;;;;;;;;;;;;;28.03;39.10;97292.03;4233277;28;5594;-63
2023/07/09 09:43:50;;;;;;;;;;;;;;;28.04;39.11;97286.31;4214540;28;5718;-62
2023/07/09 09:45:53;;;;;;;;;;;;;;;28.05;39.11;97287.91;4231595;28;5593;-63
2023/07/09 09:48:00;;;;;;;;;;;;;;;28.06;39.14;97281.38;4233155;28;5636;-62
2023/07/09 09:50:06;;;;;;;;;;;;;;;28.07;39.12;97280.28;4228928;27;5740;-63
2023/07/09 09:52:14;;;;;;;;;;;;;;;28.10;39.02;97289.78;4235291;27;6221;-65
2023/07/09 09:54:20;;;;;;;;;;;;;;;28.08;39.12;97281.88;4230773;28;5675;-63
2023/07/09 09:56:28;;;;;;;;;;;;;;;28.08;39.08;97283.81;4232448;28;5797;-89
2023/07/09 09:58:31;;;;;;;;;;;;;;;28.10;39.16;97292.50;4233651;28;5509;-69
2023/07/09 10:00:34;;;;;;;;;;;;;;;28.11;39.30;97291.38;4232695;28;5620;-70
2023/07/09 10:02:41;;;;;;;;;;;;;;;28.12;39.16;97291.09;4233457;28;5571;-71
2023/07/09 10:04:45;;;;;;;;;;;;;;;28.12;39.30;97282.94;4233459;28;5906;-79
2023/07/09 10:06:53;;;;;;;;;;;;;;;28.16;39.27;97287.78;4229178;27;6521;-61
2023/07/09 10:09:01;;;;;;;;;;;;;;;28.16;39.20;97288.59;4233104;27;5642;-66
2023/07/09 10:11:22;;;;;;;;;;;;;;;28.17;39.34;97295.63;4229169;28;5707;-69
2023/07/09 10:13:31;;;;;;;;;;;;;;;28.20;39.32;97289.63;4229752;28;5608;-61
2023/07/09 10:15:43;;;;;;;;;;;;;;;28.20;39.47;97292.34;4233237;28;5797;-70
2023/07/09 10:17:55;;;;;;;;;;;;;;;28.22;39.51;97286.63;4232723;28;5770;-62
2023/07/09 10:20:03;;;;;;;;;;;;;;;28.23;39.40;97289.03;4232425;28;5684;-65
2023/07/09 10:22:13;;;;;;;;;;;;;;;28.23;39.47;97291.75;4223518;28;5751;-66
2023/07/09 10:24:33;;;;;;;;;;;;;;;28.22;39.61;97279.25;4229721;28;5680;-65
2023/07/09 10:26:42;;;;;;;;;;;;;;;28.22;39.53;97281.97;4232130;28;5656;-65
2023/07/09 10:29:06;;;;;;;;;;;;;;;28.25;39.68;97280.56;4232387;28;5790;-65
2023/07/09 10:31:18;;;;;;;;;;;;;;;28.29;39.72;97289.78;4224005;28;5696;-60
2023/07/09 10:33:28;;;;;;;;;;;;;;;28.31;39.60;97285.66;4230283;27;5736;-60
2023/07/09 10:35:38;;;;;;;;;;;;;;;28.33;39.70;97288.91;4226928;27;5581;-60
2023/07/09 10:38:05;;;;;;;;;;;;;;;28.35;39.62;97292.13;4231266;28;5506;-60
2023/07/09 10:40:12;;;;;;;;;;;;;;;28.36;39.59;97292.94;4228471;28;5698;-60
2023/07/09 10:42:24;;;;;;;;;;;;;;;28.32;39.69;97290.03;4232194;28;5700;-60
2023/07/09 10:44:34;;;;;;;;;;;;;;;28.33;39.72;97286.19;4232005;28;5806;-61
2023/07/09 10:46:43;;;;;;;;;;;;;;;28.35;39.58;97289.41;4224595;27;5696;-60
2023/07/09 10:48:51;;;;;;;;;;;;;;;28.37;39.64;97279.06;4231149;27;5688;-61
2023/07/09 10:50:55;;;;;;;;;;;;;;;28.37;39.52;97287.22;4229784;27;5586;-61
2023/07/09 10:53:02;;;;;;;;;;;;;;;28.39;39.63;97282.28;4231869;28;5706;-61
2023/07/09 10:55:16;;;;;;;;;;;;;;;28.43;39.41;97282.50;4231257;28;5458;-60
2023/07/09 10:57:26;;;;;;;;;;;;;;;28.46;39.34;97284.63;4232392;28;5601;-61
2023/07/09 10:59:32;;;;;;;;;;;;;;;28.47;39.34;97283.53;4232184;28;5605;-61